Time;durP1;ratioP1;P1;durP2;ratioP2;P2;SDS_P1;SDS_P2;PMS_P1;PMS_P2;Temp;Humidity;BMP_temperature;BMP_pressure;BME280_temperature;BME280_humidity;BME280_pressure;Samples;Min_cycle;Max_cycle;Signal;HPM_P1;HPM_P2
2022/02/25 00:00:37;;;;;;;12.63;4.28;;;;;;;;;;5106601;28;20035;-75
2022/02/25 00:03:03;;;;;;;8.38;3.60;;;;;;;;;;5106022;28;20032;-75
2022/02/25 00:05:29;;;;;;;9.90;3.92;;;;;;;;;;5106131;28;20028;-74
2022/02/25 00:07:54;;;;;;;8.48;3.25;;;;;;;;;;5104468;28;20240;-74
2022/02/25 00:10:20;;;;;;;8.15;3.80;;;;;;;;;;5105788;28;20062;-74
2022/02/25 00:12:46;;;;;;;9.38;4.03;;;;;;;;;;5104880;28;20031;-74
2022/02/25 00:15:12;;;;;;;14.05;4.75;;;;;;;;;;5105568;28;20024;-74
2022/02/25 00:17:37;;;;;;;10.82;3.95;;;;;;;;;;5105762;28;20047;-74
2022/02/25 00:20:04;;;;;;;12.55;4.88;;;;;;;;;;5105632;28;20058;-74
2022/02/25 00:22:29;;;;;;;8.57;4.03;;;;;;;;;;5105489;28;20028;-75
2022/02/25 00:24:54;;;;;;;8.50;3.05;;;;;;;;;;5105685;28;20062;-74
2022/02/25 00:27:20;;;;;;;9.77;3.80;;;;;;;;;;5105355;28;20032;-75
2022/02/25 00:29:45;;;;;;;11.70;3.60;;;;;;;;;;5104086;28;20024;-75
2022/02/25 00:32:11;;;;;;;11.13;4.28;;;;;;;;;;5104041;28;20024;-75
2022/02/25 00:34:36;;;;;;;8.20;3.20;;;;;;;;;;5103925;28;20024;-75
2022/02/25 00:37:02;;;;;;;11.45;3.90;;;;;;;;;;5104146;28;20251;-75
2022/02/25 00:39:27;;;;;;;11.68;5.00;;;;;;;;;;5104955;28;20413;-75
2022/02/25 00:41:53;;;;;;;9.30;3.17;;;;;;;;;;5105591;28;20023;-75
2022/02/25 00:44:18;;;;;;;7.32;3.67;;;;;;;;;;5105282;28;20035;-75
2022/02/25 00:46:43;;;;;;;12.00;4.57;;;;;;;;;;5105332;28;20032;-75
2022/02/25 00:49:09;;;;;;;8.43;3.63;;;;;;;;;;5105407;28;20229;-75
2022/02/25 00:51:34;;;;;;;10.57;3.70;;;;;;;;;;5104091;28;20028;-75
2022/02/25 00:53:59;;;;;;;11.85;4.22;;;;;;;;;;5103755;28;20032;-75
2022/02/25 00:56:25;;;;;;;13.27;4.20;;;;;;;;;;5103216;28;20048;-75
2022/02/25 00:58:53;;;;;;;9.45;3.58;;;;;;;;;;5105185;28;20108;-75
2022/02/25 01:01:18;;;;;;;5.13;2.65;;;;;;;;;;5103394;28;20336;-74
2022/02/25 01:03:44;;;;;;;8.20;3.40;;;;;;;;;;5103756;28;20032;-74
2022/02/25 01:06:11;;;;;;;14.95;5.15;;;;;;;;;;5102224;28;20031;-74
2022/02/25 01:08:36;;;;;;;10.85;3.60;;;;;;;;;;5104722;28;20039;-74
2022/02/25 01:11:02;;;;;;;8.90;2.92;;;;;;;;;;5103198;28;20032;-75
2022/02/25 01:13:27;;;;;;;10.73;3.10;;;;;;;;;;5105025;28;20036;-75
2022/02/25 01:15:52;;;;;;;11.57;3.70;;;;;;;;;;5104541;28;20024;-75
2022/02/25 01:18:18;;;;;;;13.10;4.57;;;;;;;;;;5104309;28;20485;-74
2022/02/25 01:20:43;;;;;;;8.88;4.13;;;;;;;;;;5104545;28;20032;-75
2022/02/25 01:23:09;;;;;;;9.52;3.90;;;;;;;;;;5103250;28;20506;-75
2022/02/25 01:25:35;;;;;;;9.32;3.90;;;;;;;;;;5104107;28;20055;-75
2022/02/25 01:28:00;;;;;;;6.72;3.15;;;;;;;;;;5102972;28;20042;-75
2022/02/25 01:30:25;;;;;;;10.38;4.00;;;;;;;;;;5103048;28;20035;-75
2022/02/25 01:32:51;;;;;;;7.90;3.22;;;;;;;;;;5104160;28;20046;-74
2022/02/25 01:35:16;;;;;;;8.25;4.03;;;;;;;;;;5102781;28;20056;-74
2022/02/25 01:37:44;;;;;;;7.63;3.50;;;;;;;;;;5103888;28;20047;-74
2022/02/25 01:40:09;;;;;;;13.65;3.70;;;;;;;;;;5104233;28;20379;-75
2022/02/25 01:42:44;;;;;;;10.65;4.00;;;;;;;;;;5102315;28;20031;-75
2022/02/25 01:45:10;;;;;;;8.82;3.92;;;;;;;;;;5102865;28;20032;-74
2022/02/25 01:47:35;;;;;;;10.48;3.45;;;;;;;;;;5102595;28;20063;-75
2022/02/25 01:50:00;;;;;;;11.55;3.58;;;;;;;;;;5104094;28;20059;-74
2022/02/25 01:52:26;;;;;;;7.32;3.92;;;;;;;;;;5104144;28;20044;-75
2022/02/25 01:54:51;;;;;;;11.80;4.00;;;;;;;;;;5103925;28;20024;-75
2022/02/25 01:57:16;;;;;;;8.23;3.97;;;;;;;;;;5103885;28;20028;-75
2022/02/25 01:59:43;;;;;;;11.43;4.38;;;;;;;;;;5102536;28;20024;-74
2022/02/25 02:02:09;;;;;;;12.13;4.55;;;;;;;;;;5103357;28;20481;-74
2022/02/25 02:04:35;;;;;;;10.55;4.30;;;;;;;;;;5103765;28;20087;-74
2022/02/25 02:07:01;;;;;;;13.82;4.93;;;;;;;;;;5103971;28;20027;-74
2022/02/25 02:09:27;;;;;;;7.78;3.85;;;;;;;;;;5103277;28;20093;-74
2022/02/25 02:11:54;;;;;;;8.52;4.43;;;;;;;;;;5103682;28;20039;-74
2022/02/25 02:14:22;;;;;;;11.73;4.72;;;;;;;;;;5103347;28;20028;-74
2022/02/25 02:16:51;;;;;;;12.88;4.60;;;;;;;;;;5103159;28;20084;-74
2022/02/25 02:19:17;;;;;;;14.98;6.20;;;;;;;;;;5103280;28;20032;-74
2022/02/25 02:21:45;;;;;;;10.18;5.15;;;;;;;;;;5103518;28;20106;-74
2022/02/25 02:24:12;;;;;;;11.52;5.03;;;;;;;;;;5103435;28;20044;-74
2022/02/25 02:26:38;;;;;;;12.20;5.10;;;;;;;;;;5103719;28;20114;-74
2022/02/25 02:29:04;;;;;;;14.25;5.78;;;;;;;;;;5101625;28;20040;-74
2022/02/25 02:31:30;;;;;;;13.68;3.83;;;;;;;;;;5101773;28;20107;-73
2022/02/25 02:33:55;;;;;;;11.63;5.45;;;;;;;;;;5103487;28;20062;-74
2022/02/25 02:36:21;;;;;;;15.48;5.15;;;;;;;;;;5101639;28;20024;-73
2022/02/25 02:38:47;;;;;;;9.88;5.10;;;;;;;;;;5103497;28;20028;-74
2022/02/25 02:41:12;;;;;;;15.00;5.07;;;;;;;;;;5101835;28;20081;-74
2022/02/25 02:43:39;;;;;;;9.23;5.35;;;;;;;;;;5101686;28;20032;-74
2022/02/25 02:46:07;;;;;;;9.18;4.53;;;;;;;;;;5102902;28;20024;-74
2022/02/25 02:48:33;;;;;;;12.00;5.30;;;;;;;;;;5103233;28;20028;-74
2022/02/25 02:50:59;;;;;;;11.85;5.13;;;;;;;;;;5101613;28;20188;-74
2022/02/25 02:53:24;;;;;;;8.30;4.10;;;;;;;;;;5103004;28;20028;-74
2022/02/25 02:55:50;;;;;;;9.75;4.20;;;;;;;;;;5102924;28;20497;-75
2022/02/25 02:58:15;;;;;;;4.30;3.85;;;;;;;;;;5102745;28;20039;-74
2022/02/25 03:00:43;;;;;;;8.65;3.63;;;;;;;;;;5101282;28;20045;-74
2022/02/25 03:03:09;;;;;;;11.93;3.83;;;;;;;;;;5103098;28;20031;-74
2022/02/25 03:05:36;;;;;;;9.20;2.45;;;;;;;;;;5103016;28;20043;-74
2022/02/25 03:08:05;;;;;;;10.38;2.72;;;;;;;;;;5101564;28;20038;-74
2022/02/25 03:10:32;;;;;;;11.77;3.15;;;;;;;;;;5101489;28;20031;-74
2022/02/25 03:12:58;;;;;;;4.65;1.98;;;;;;;;;;5102644;28;20032;-74
2022/02/25 03:15:23;;;;;;;5.38;1.98;;;;;;;;;;5101462;28;20103;-74
2022/02/25 03:17:48;;;;;;;6.43;2.97;;;;;;;;;;5102789;28;20031;-75
2022/02/25 03:20:14;;;;;;;10.73;3.00;;;;;;;;;;5102316;28;20490;-74
2022/02/25 03:22:40;;;;;;;16.33;1.58;;;;;;;;;;5103291;28;20035;-74
2022/02/25 03:25:06;;;;;;;5.78;1.63;;;;;;;;;;5102331;28;20044;-74
2022/02/25 03:27:32;;;;;;;7.15;2.20;;;;;;;;;;5102739;28;20028;-74
2022/02/25 03:29:58;;;;;;;4.85;1.30;;;;;;;;;;5104264;28;20032;-75
2022/02/25 03:32:24;;;;;;;4.20;1.70;;;;;;;;;;5105407;28;20026;-74
2022/02/25 03:34:50;;;;;;;1.63;1.08;;;;;;;;;;5105440;28;20107;-72
2022/02/25 03:37:17;;;;;;;5.40;1.85;;;;;;;;;;5106291;28;20533;-72
2022/02/25 03:39:43;;;;;;;2.70;0.80;;;;;;;;;;5106186;28;20082;-71
2022/02/25 03:42:08;;;;;;;0.50;0.40;;;;;;;;;;5106541;28;20028;-70
2022/02/25 03:44:34;;;;;;;1.42;0.40;;;;;;;;;;5105254;28;20219;-70
2022/02/25 03:47:00;;;;;;;2.92;0.50;;;;;;;;;;5106923;28;20054;-71
2022/02/25 03:49:26;;;;;;;1.38;0.20;;;;;;;;;;5104727;28;20020;-71
2022/02/25 03:51:52;;;;;;;1.25;0.45;;;;;;;;;;5105123;28;20039;-73
2022/02/25 03:54:17;;;;;;;0.30;0.22;;;;;;;;;;5106481;28;20039;-71
2022/02/25 03:56:42;;;;;;;1.58;0.50;;;;;;;;;;5106063;28;20425;-72
2022/02/25 03:59:08;;;;;;;1.92;0.30;;;;;;;;;;5104742;28;20023;-71
2022/02/25 04:01:33;;;;;;;0.98;0.30;;;;;;;;;;5106114;28;20048;-73
2022/02/25 04:03:59;;;;;;;1.15;0.20;;;;;;;;;;5104286;28;20063;-71
2022/02/25 04:06:25;;;;;;;1.17;0.25;;;;;;;;;;5104199;28;20107;-70
2022/02/25 04:08:51;;;;;;;0.40;0.20;;;;;;;;;;5106035;28;20028;-71
2022/02/25 04:11:17;;;;;;;4.68;0.28;;;;;;;;;;5104682;28;20036;-71
2022/02/25 04:13:42;;;;;;;4.15;0.30;;;;;;;;;;5106227;28;20175;-72
2022/02/25 04:16:08;;;;;;;1.77;0.15;;;;;;;;;;5106277;28;20032;-70
2022/02/25 04:18:34;;;;;;;1.88;0.10;;;;;;;;;;5106167;28;20274;-70
2022/02/25 04:21:00;;;;;;;0.10;0.10;;;;;;;;;;5105881;28;20031;-71
2022/02/25 04:23:26;;;;;;;0.10;0.10;;;;;;;;;;5105798;28;20052;-71
2022/02/25 04:25:51;;;;;;;2.10;0.40;;;;;;;;;;5105749;28;20020;-71
2022/02/25 04:28:17;;;;;;;3.38;0.30;;;;;;;;;;5105882;28;20024;-72
2022/02/25 04:30:44;;;;;;;0.65;0.15;;;;;;;;;;5105839;28;20028;-71
2022/02/25 04:33:09;;;;;;;1.65;0.30;;;;;;;;;;5105729;28;20016;-71
2022/02/25 04:35:36;;;;;;;3.42;0.57;;;;;;;;;;5104158;28;20050;-72
2022/02/25 04:38:02;;;;;;;2.97;0.60;;;;;;;;;;5104262;28;20103;-72
2022/02/25 04:40:28;;;;;;;3.90;0.70;;;;;;;;;;5103696;28;20130;-73
2022/02/25 04:42:54;;;;;;;4.50;0.60;;;;;;;;;;5105564;28;20021;-73
2022/02/25 04:45:20;;;;;;;4.20;1.02;;;;;;;;;;5105416;28;20039;-73
2022/02/25 04:47:45;;;;;;;6.50;1.00;;;;;;;;;;5105152;28;20043;-74
2022/02/25 04:50:13;;;;;;;6.78;0.88;;;;;;;;;;5105580;28;20050;-73
2022/02/25 04:52:40;;;;;;;4.07;0.70;;;;;;;;;;5105303;28;20024;-74
2022/02/25 04:55:06;;;;;;;2.10;0.40;;;;;;;;;;5103800;28;20028;-73
2022/02/25 04:57:31;;;;;;;2.17;0.25;;;;;;;;;;5105207;28;20154;-74
2022/02/25 04:59:56;;;;;;;1.95;0.38;;;;;;;;;;5105090;28;20085;-74
2022/02/25 05:02:22;;;;;;;3.80;0.60;;;;;;;;;;5105043;28;20016;-73
2022/02/25 05:04:47;;;;;;;2.70;0.40;;;;;;;;;;5104997;28;20056;-75
2022/02/25 05:07:12;;;;;;;1.15;0.50;;;;;;;;;;5105323;28;20035;-73
2022/02/25 05:09:38;;;;;;;2.42;0.57;;;;;;;;;;5103516;28;20036;-75
2022/02/25 05:12:03;;;;;;;7.50;0.80;;;;;;;;;;5104972;28;20036;-74
2022/02/25 05:20:15;;;;;;;8.13;1.25;;;;;;;;;;5104893;28;20586;-75
2022/02/25 05:22:41;;;;;;;12.55;1.27;;;;;;;;;;5105171;28;20036;-76
2022/02/25 05:25:07;;;;;;;11.32;1.45;;;;;;;;;;5103006;28;20048;-77
2022/02/25 05:27:33;;;;;;;11.02;0.93;;;;;;;;;;5104862;28;20032;-76
2022/02/25 05:29:58;;;;;;;62.80;2.85;;;;;;;;;;5104519;28;20028;-77
2022/02/25 05:32:24;;;;;;;13.10;1.67;;;;;;;;;;5104130;28;20024;-77
2022/02/25 05:34:49;;;;;;;7.03;1.35;;;;;;;;;;5102978;28;20031;-77
2022/02/25 05:37:14;;;;;;;11.57;1.40;;;;;;;;;;5104602;28;20029;-76
2022/02/25 05:39:41;;;;;;;9.25;1.45;;;;;;;;;;5102708;28;20028;-77
2022/02/25 05:42:06;;;;;;;5.70;1.27;;;;;;;;;;5102954;28;20114;-76
2022/02/25 05:44:32;;;;;;;7.70;1.73;;;;;;;;;;5102919;28;20060;-76
2022/02/25 05:46:57;;;;;;;6.15;0.98;;;;;;;;;;5103041;28;20035;-75
2022/02/25 05:49:24;;;;;;;7.45;1.13;;;;;;;;;;5104324;28;20149;-75
2022/02/25 05:51:50;;;;;;;7.90;1.20;;;;;;;;;;5103301;28;20110;-75
2022/02/25 05:54:15;;;;;;;9.55;2.00;;;;;;;;;;5102255;28;20112;-75
2022/02/25 05:56:40;;;;;;;11.32;1.40;;;;;;;;;;5103981;28;20032;-74
2022/02/25 05:59:06;;;;;;;6.10;0.90;;;;;;;;;;5102166;28;20028;-73
2022/02/25 06:01:34;;;;;;;5.20;1.70;;;;;;;;;;5103476;28;20031;-74
2022/02/25 06:04:00;;;;;;;8.50;1.25;;;;;;;;;;5103102;28;20024;-73
2022/02/25 06:06:25;;;;;;;12.55;1.85;;;;;;;;;;5102443;28;20381;-74
2022/02/25 06:08:51;;;;;;;6.38;1.23;;;;;;;;;;5103960;28;20059;-73
2022/02/25 06:11:16;;;;;;;4.88;0.98;;;;;;;;;;5103782;28;20050;-73
2022/02/25 06:13:42;;;;;;;6.80;1.77;;;;;;;;;;5102701;28;20123;-73
2022/02/25 06:16:07;;;;;;;4.28;1.00;;;;;;;;;;5102305;28;20050;-74
2022/02/25 06:18:34;;;;;;;6.10;1.92;;;;;;;;;;5103831;28;20024;-73
2022/02/25 06:21:00;;;;;;;5.00;1.13;;;;;;;;;;5103472;28;20023;-74
2022/02/25 06:23:25;;;;;;;5.72;1.52;;;;;;;;;;5103276;28;20020;-74
2022/02/25 06:25:50;;;;;;;4.60;1.13;;;;;;;;;;5103607;28;20039;-73
2022/02/25 06:28:16;;;;;;;5.55;0.82;;;;;;;;;;5103506;28;20028;-72
2022/02/25 06:30:42;;;;;;;6.57;1.27;;;;;;;;;;5103457;28;20062;-74
2022/02/25 06:33:07;;;;;;;11.02;1.52;;;;;;;;;;5102402;28;20504;-73
2022/02/25 06:35:33;;;;;;;3.25;1.08;;;;;;;;;;5103550;28;20489;-74
2022/02/25 06:37:59;;;;;;;9.32;1.85;;;;;;;;;;5103242;28;20024;-74
2022/02/25 06:40:25;;;;;;;10.10;1.48;;;;;;;;;;5102116;28;20028;-74
2022/02/25 06:42:50;;;;;;;10.32;1.10;;;;;;;;;;5101269;28;20539;-72
2022/02/25 06:45:16;;;;;;;8.60;1.20;;;;;;;;;;5103305;28;20024;-73
2022/02/25 06:47:42;;;;;;;9.48;1.80;;;;;;;;;;5101927;28;20523;-73
2022/02/25 06:50:09;;;;;;;6.07;1.33;;;;;;;;;;5102151;28;20381;-73
2022/02/25 06:52:35;;;;;;;7.00;1.60;;;;;;;;;;5101451;28;20497;-73
2022/02/25 06:55:01;;;;;;;7.20;1.58;;;;;;;;;;5101550;28;20022;-73
2022/02/25 06:57:26;;;;;;;2.78;0.82;;;;;;;;;;5101486;28;20123;-74
2022/02/25 06:59:52;;;;;;;9.15;1.35;;;;;;;;;;5103046;28;20557;-72
2022/02/25 07:02:17;;;;;;;4.05;0.95;;;;;;;;;;5102872;28;20092;-73
2022/02/25 07:04:43;;;;;;;4.15;1.08;;;;;;;;;;5101320;28;20073;-72
2022/02/25 07:07:08;;;;;;;9.95;1.70;;;;;;;;;;5101801;28;20032;-73
2022/02/25 07:09:34;;;;;;;11.68;1.90;;;;;;;;;;5103152;28;20051;-73
2022/02/25 07:11:59;;;;;;;9.80;2.05;;;;;;;;;;5101883;28;20035;-73
2022/02/25 07:14:24;;;;;;;8.85;1.80;;;;;;;;;;5102788;28;20028;-74
2022/02/25 07:16:50;;;;;;;10.45;1.48;;;;;;;;;;5102988;28;20020;-73
2022/02/25 07:19:15;;;;;;;8.90;1.65;;;;;;;;;;5101355;28;20028;-73
2022/02/25 07:21:41;;;;;;;5.45;1.13;;;;;;;;;;5102868;28;20063;-73
2022/02/25 07:24:06;;;;;;;11.30;1.70;;;;;;;;;;5102434;28;20036;-74
2022/02/25 07:26:35;;;;;;;4.75;0.88;;;;;;;;;;5101508;28;20028;-73
2022/02/25 07:29:00;;;;;;;4.65;1.10;;;;;;;;;;5101027;28;20032;-73
2022/02/25 07:31:25;;;;;;;9.57;1.70;;;;;;;;;;5102213;28;20057;-73
2022/02/25 07:33:51;;;;;;;13.45;1.70;;;;;;;;;;5101606;28;20028;-73
2022/02/25 07:36:17;;;;;;;4.03;1.30;;;;;;;;;;5101383;28;20374;-72
2022/02/25 07:38:42;;;;;;;8.23;1.15;;;;;;;;;;5101136;28;20304;-72
2022/02/25 07:41:08;;;;;;;7.50;1.60;;;;;;;;;;5102790;28;20028;-73
2022/02/25 07:43:33;;;;;;;9.55;1.38;;;;;;;;;;5101659;28;20024;-71
2022/02/25 07:45:58;;;;;;;7.22;1.20;;;;;;;;;;5101191;28;20320;-73
2022/02/25 07:48:24;;;;;;;7.80;1.17;;;;;;;;;;5101468;28;20028;-73
2022/02/25 07:50:49;;;;;;;14.95;1.92;;;;;;;;;;5102500;28;20099;-72
2022/02/25 07:53:16;;;;;;;4.72;1.48;;;;;;;;;;5101580;28;20028;-74
2022/02/25 07:55:41;;;;;;;9.75;1.33;;;;;;;;;;5101311;28;20039;-73
2022/02/25 07:58:07;;;;;;;3.60;0.80;;;;;;;;;;5101380;28;20016;-72
2022/02/25 08:00:33;;;;;;;6.45;1.33;;;;;;;;;;5102690;28;20092;-72
2022/02/25 08:03:02;;;;;;;7.97;1.52;;;;;;;;;;5102662;28;20036;-73
2022/02/25 08:05:28;;;;;;;7.95;1.30;;;;;;;;;;5101251;28;20120;-72
2022/02/25 08:07:53;;;;;;;6.20;1.05;;;;;;;;;;5102686;28;20024;-74
2022/02/25 08:10:19;;;;;;;8.80;1.60;;;;;;;;;;5101061;28;20426;-72
2022/02/25 08:12:45;;;;;;;7.90;1.40;;;;;;;;;;5102560;28;20074;-73
2022/02/25 08:15:11;;;;;;;9.05;1.02;;;;;;;;;;5101461;28;20028;-73
2022/02/25 08:17:37;;;;;;;6.30;1.15;;;;;;;;;;5106192;28;20028;-73
2022/02/25 08:20:04;;;;;;;3.30;1.25;;;;;;;;;;5105948;28;20051;-73
2022/02/25 08:22:30;;;;;;;5.38;1.00;;;;;;;;;;5106059;28;20093;-74
2022/02/25 08:24:56;;;;;;;8.70;1.63;;;;;;;;;;5105800;28;20044;-74
2022/02/25 08:27:21;;;;;;;15.32;1.65;;;;;;;;;;5104799;28;20059;-74
2022/02/25 08:29:47;;;;;;;5.65;1.17;;;;;;;;;;5105891;28;20035;-73
2022/02/25 08:32:12;;;;;;;10.00;1.42;;;;;;;;;;5105828;28;20020;-74
2022/02/25 08:34:37;;;;;;;12.52;2.25;;;;;;;;;;5104332;28;20108;-72
2022/02/25 08:37:03;;;;;;;6.53;1.80;;;;;;;;;;5105865;28;20028;-73
2022/02/25 08:39:29;;;;;;;9.55;1.42;;;;;;;;;;5105573;28;20042;-73
2022/02/25 08:41:55;;;;;;;7.35;1.40;;;;;;;;;;5104491;28;20032;-73
2022/02/25 08:44:20;;;;;;;9.82;1.30;;;;;;;;;;5105432;28;20342;-73
2022/02/25 08:46:47;;;;;;;8.20;1.30;;;;;;;;;;5105821;28;20028;-75
2022/02/25 08:49:12;;;;;;;7.90;1.98;;;;;;;;;;5104091;28;20078;-74
2022/02/25 08:51:38;;;;;;;9.20;1.40;;;;;;;;;;5105786;28;20465;-73
2022/02/25 08:54:04;;;;;;;6.10;1.23;;;;;;;;;;5104185;28;20385;-74
2022/02/25 08:56:29;;;;;;;9.65;1.33;;;;;;;;;;5105418;28;20055;-74
2022/02/25 08:58:55;;;;;;;5.03;1.05;;;;;;;;;;5104088;28;20047;-74
2022/02/25 09:01:23;;;;;;;7.32;1.42;;;;;;;;;;5103834;28;20035;-74
2022/02/25 09:03:49;;;;;;;7.30;0.70;;;;;;;;;;5105403;28;20504;-75
2022/02/25 09:06:14;;;;;;;7.72;1.08;;;;;;;;;;5104086;28;20055;-74
2022/02/25 09:08:41;;;;;;;8.40;1.42;;;;;;;;;;5105172;28;20035;-74
2022/02/25 09:11:06;;;;;;;11.30;1.15;;;;;;;;;;5105265;28;20032;-74
2022/02/25 09:13:32;;;;;;;9.10;1.40;;;;;;;;;;5103944;28;20024;-73
2022/02/25 09:15:57;;;;;;;6.53;1.38;;;;;;;;;;5105010;28;20082;-73
2022/02/25 09:18:23;;;;;;;6.28;1.10;;;;;;;;;;5103936;28;20247;-73
2022/02/25 09:20:49;;;;;;;2.85;0.75;;;;;;;;;;5103592;28;20024;-73
2022/02/25 09:23:14;;;;;;;9.60;1.20;;;;;;;;;;5105111;28;20119;-73
2022/02/25 09:25:40;;;;;;;3.55;1.15;;;;;;;;;;5104615;28;20044;-74
2022/02/25 09:28:06;;;;;;;5.07;0.82;;;;;;;;;;5104038;28;20339;-73
2022/02/25 09:30:32;;;;;;;6.20;1.33;;;;;;;;;;5104730;28;20074;-73
2022/02/25 09:32:57;;;;;;;8.90;0.90;;;;;;;;;;5103544;28;20131;-73
2022/02/25 09:35:23;;;;;;;9.35;1.70;;;;;;;;;;5103188;28;20036;-72
2022/02/25 09:37:49;;;;;;;5.00;1.15;;;;;;;;;;5103259;28;20020;-73
2022/02/25 09:40:18;;;;;;;4.05;1.45;;;;;;;;;;5104507;28;20028;-73
2022/02/25 09:42:45;;;;;;;12.68;1.55;;;;;;;;;;5103273;28;20035;-73
2022/02/25 09:45:13;;;;;;;12.25;1.25;;;;;;;;;;5104472;28;20020;-73
2022/02/25 09:47:39;;;;;;;8.98;1.00;;;;;;;;;;5104528;28;20031;-73
2022/02/25 09:50:17;;;;;;;6.93;1.30;;;;;;;;;;5104266;28;20540;-73
2022/02/25 09:52:43;;;;;;;8.15;1.35;;;;;;;;;;5104399;28;20051;-73
2022/02/25 09:55:08;;;;;;;8.18;1.45;;;;;;;;;;5102834;28;20485;-73
2022/02/25 09:57:34;;;;;;;11.40;2.72;;;;;;;;;;5104230;28;20032;-73
2022/02/25 10:00:00;;;;;;;10.45;1.58;;;;;;;;;;5104162;28;20035;-73
2022/02/25 10:02:40;;;;;;;8.38;0.90;;;;;;;;;;5104251;28;20028;-73
2022/02/25 10:05:21;;;;;;;7.25;1.25;;;;;;;;;;5104071;28;20023;-73
2022/02/25 10:07:46;;;;;;;6.30;0.95;;;;;;;;;;5102905;28;20059;-74
2022/02/25 10:10:14;;;;;;;2.30;0.80;;;;;;;;;;5103334;28;20407;-73
2022/02/25 10:12:45;;;;;;;7.63;1.30;;;;;;;;;;5104142;28;20030;-74
2022/02/25 10:15:11;;;;;;;18.63;2.13;;;;;;;;;;5102784;28;20028;-73
2022/02/25 10:17:37;;;;;;;2.10;0.60;;;;;;;;;;5104080;28;20119;-74
2022/02/25 10:20:05;;;;;;;10.75;1.48;;;;;;;;;;5103103;28;20028;-74
2022/02/25 10:22:36;;;;;;;8.30;1.20;;;;;;;;;;5103841;28;20043;-74
2022/02/25 10:25:11;;;;;;;5.10;1.15;;;;;;;;;;5103687;28;20108;-74
2022/02/25 10:27:42;;;;;;;8.52;1.23;;;;;;;;;;5104369;28;20028;-74
2022/02/25 10:30:21;;;;;;;11.55;1.27;;;;;;;;;;5103747;28;20096;-73
2022/02/25 10:32:51;;;;;;;3.85;1.00;;;;;;;;;;5104053;28;20058;-73
2022/02/25 10:35:24;;;;;;;7.82;1.27;;;;;;;;;;5103779;28;20024;-73
2022/02/25 10:37:55;;;;;;;8.98;1.10;;;;;;;;;;5103544;28;20035;-73
2022/02/25 10:40:22;;;;;;;7.20;0.95;;;;;;;;;;5102114;28;20497;-73
2022/02/25 10:42:47;;;;;;;5.93;0.85;;;;;;;;;;5102169;28;20050;-73
2022/02/25 10:45:26;;;;;;;8.48;1.70;;;;;;;;;;5103283;28;20031;-74
2022/02/25 10:47:51;;;;;;;8.43;0.85;;;;;;;;;;5103820;28;20032;-73
2022/02/25 10:50:17;;;;;;;6.20;0.85;;;;;;;;;;5103403;28;20071;-73
2022/02/25 10:52:46;;;;;;;8.20;0.93;;;;;;;;;;5103542;28;20020;-74
2022/02/25 10:55:18;;;;;;;1.83;0.75;;;;;;;;;;5103371;28;20042;-74
2022/02/25 10:57:44;;;;;;;2.42;0.73;;;;;;;;;;5103353;28;20038;-74
2022/02/25 11:00:12;;;;;;;7.30;1.10;;;;;;;;;;5102051;28;20053;-73
2022/02/25 11:02:40;;;;;;;4.03;0.85;;;;;;;;;;5104044;28;20035;-74
2022/02/25 11:05:11;;;;;;;7.47;1.17;;;;;;;;;;5103597;28;20028;-73
2022/02/25 11:07:44;;;;;;;3.97;0.93;;;;;;;;;;5104456;28;20040;-73
2022/02/25 11:10:12;;;;;;;9.43;1.55;;;;;;;;;;5103673;28;20027;-74
2022/02/25 11:12:41;;;;;;;4.63;0.80;;;;;;;;;;5102248;28;20066;-74
2022/02/25 11:15:10;;;;;;;4.40;1.15;;;;;;;;;;5102937;28;20531;-73
2022/02/25 11:17:38;;;;;;;3.60;0.57;;;;;;;;;;5103407;28;20031;-73
2022/02/25 11:20:06;;;;;;;4.43;1.10;;;;;;;;;;5103261;28;20028;-74
2022/02/25 11:22:33;;;;;;;5.57;1.02;;;;;;;;;;5103201;28;20497;-73
2022/02/25 11:24:59;;;;;;;7.68;1.20;;;;;;;;;;5100431;28;20056;-72
2022/02/25 11:27:24;;;;;;;5.18;0.90;;;;;;;;;;5100301;28;20032;-72
2022/02/25 11:30:01;;;;;;;4.57;0.77;;;;;;;;;;5102830;28;20658;-72
2022/02/25 11:32:35;;;;;;;7.22;1.10;;;;;;;;;;5102701;28;20020;-72
2022/02/25 11:35:31;;;;;;;6.07;1.10;;;;;;;;;;5102501;28;20336;-72
2022/02/25 11:38:09;;;;;;;2.17;0.73;;;;;;;;;;5100071;28;20028;-73
2022/02/25 11:40:54;;;;;;;4.03;1.08;;;;;;;;;;5102926;28;20024;-71
2022/02/25 11:43:35;;;;;;;5.60;0.88;;;;;;;;;;5102864;28;20032;-72
2022/02/25 11:46:01;;;;;;;2.22;0.60;;;;;;;;;;5102218;28;20020;-72
2022/02/25 11:48:56;;;;;;;9.25;1.30;;;;;;;;;;5100903;28;20136;-73
2022/02/25 11:51:35;;;;;;;6.63;1.38;;;;;;;;;;5097133;28;20093;-72
2022/02/25 11:54:30;;;;;;;8.75;1.30;;;;;;;;;;5106540;28;20504;-74
2022/02/25 11:56:56;;;;;;;3.60;0.90;;;;;;;;;;5105358;28;20096;-74
2022/02/25 11:59:33;;;;;;;5.28;1.17;;;;;;;;;;5106371;28;20028;-73
2022/02/25 12:02:19;;;;;;;5.13;0.80;;;;;;;;;;5106637;28;20023;-73
2022/02/25 12:04:48;;;;;;;5.72;1.55;;;;;;;;;;5106267;28;20112;-73
2022/02/25 12:07:37;;;;;;;2.88;0.77;;;;;;;;;;5106577;28;20039;-74
2022/02/25 12:10:22;;;;;;;4.00;0.90;;;;;;;;;;5106147;28;20419;-74
2022/02/25 12:12:54;;;;;;;7.63;1.40;;;;;;;;;;5105072;28;20519;-74
2022/02/25 12:15:26;;;;;;;5.70;1.10;;;;;;;;;;5105831;28;20050;-74
2022/02/25 12:17:54;;;;;;;2.17;0.73;;;;;;;;;;5106001;28;20034;-74
2022/02/25 12:20:20;;;;;;;6.93;1.10;;;;;;;;;;5105918;28;20028;-74
2022/02/25 12:22:52;;;;;;;5.72;0.90;;;;;;;;;;5106032;28;20084;-74
2022/02/25 12:25:40;;;;;;;1.20;0.52;;;;;;;;;;5105666;28;20067;-74
2022/02/25 12:28:24;;;;;;;3.10;0.73;;;;;;;;;;5104542;28;20054;-74
2022/02/25 12:31:24;;;;;;;8.93;1.30;;;;;;;;;;5104458;28;20035;-75
2022/02/25 12:33:59;;;;;;;3.72;0.82;;;;;;;;;;5104811;28;20027;-75
2022/02/25 12:36:28;;;;;;;2.33;0.73;;;;;;;;;;5105965;28;20028;-74
2022/02/25 12:39:05;;;;;;;6.00;0.80;;;;;;;;;;5104175;28;20024;-74
2022/02/25 12:41:48;;;;;;;5.35;1.13;;;;;;;;;;5104373;28;20028;-76
2022/02/25 12:44:17;;;;;;;8.65;1.88;;;;;;;;;;5105537;28;20027;-75
2022/02/25 12:46:54;;;;;;;8.45;0.85;;;;;;;;;;5105343;28;20409;-74
2022/02/25 12:49:22;;;;;;;7.88;1.00;;;;;;;;;;5105503;28;20032;-74
2022/02/25 12:51:48;;;;;;;7.45;0.98;;;;;;;;;;5104441;28;20031;-74
2022/02/25 12:54:17;;;;;;;8.50;1.40;;;;;;;;;;5103836;28;20095;-74
2022/02/25 12:56:51;;;;;;;4.45;0.65;;;;;;;;;;5104176;28;20032;-75
2022/02/25 12:59:19;;;;;;;5.75;0.80;;;;;;;;;;5104026;28;20024;-75
2022/02/25 13:01:53;;;;;;;7.25;0.70;;;;;;;;;;5103139;28;20421;-74
2022/02/25 13:04:24;;;;;;;3.17;1.08;;;;;;;;;;5103925;28;20016;-75
2022/02/25 13:06:52;;;;;;;8.85;0.95;;;;;;;;;;5105006;28;20016;-74
2022/02/25 13:09:20;;;;;;;8.05;1.00;;;;;;;;;;5105422;28;20024;-74
2022/02/25 13:11:56;;;;;;;3.70;0.70;;;;;;;;;;5105184;28;20168;-74
2022/02/25 13:14:25;;;;;;;10.95;1.45;;;;;;;;;;5103771;28;20085;-74
2022/02/25 13:17:12;;;;;;;6.07;1.35;;;;;;;;;;5104776;28;20058;-74
2022/02/25 13:19:37;;;;;;;3.30;0.60;;;;;;;;;;5104960;28;20016;-74
2022/02/25 13:22:24;;;;;;;6.55;1.42;;;;;;;;;;5103396;28;20408;-74
2022/02/25 13:24:54;;;;;;;5.03;0.82;;;;;;;;;;5104860;28;20099;-74
2022/02/25 13:27:38;;;;;;;3.72;0.57;;;;;;;;;;5104868;28;20087;-74
2022/02/25 13:30:18;;;;;;;;;;;;;;;;;;5105086;28;20028;-74
2022/02/25 13:32:51;;;;;;;4.35;0.73;;;;;;;;;;5104865;28;19955;-74
2022/02/25 13:35:20;;;;;;;8.47;1.17;;;;;;;;;;5104868;28;20050;-74
2022/02/25 13:37:59;;;;;;;11.60;1.08;;;;;;;;;;5103368;28;20040;-75
2022/02/25 13:40:40;;;;;;;5.65;1.20;;;;;;;;;;5102862;28;20484;-74
2022/02/25 13:43:35;;;;;;;5.80;1.08;;;;;;;;;;5104677;28;20527;-74
2022/02/25 13:46:11;;;;;;;4.93;1.40;;;;;;;;;;5104533;28;20020;-74
2022/02/25 13:54:16;;;;;;;3.85;0.60;;;;;;;;;;5104267;28;20034;-75
2022/02/25 13:56:43;;;;;;;4.85;0.70;;;;;;;;;;5104181;28;20020;-75
2022/02/25 13:59:10;;;;;;;8.65;1.40;;;;;;;;;;5104316;28;20032;-74
2022/02/25 14:01:38;;;;;;;4.90;0.77;;;;;;;;;;5102721;28;20035;-75
2022/02/25 14:04:20;;;;;;;5.15;0.80;;;;;;;;;;5103714;28;20039;-74
2022/02/25 14:06:53;;;;;;;3.33;0.60;;;;;;;;;;5102633;28;20035;-74
2022/02/25 14:09:22;;;;;;;5.73;0.90;;;;;;;;;;5103990;28;20045;-75
2022/02/25 14:12:19;;;;;;;5.78;0.60;;;;;;;;;;5104119;28;20147;-75
2022/02/25 14:14:49;;;;;;;4.72;1.05;;;;;;;;;;5103175;28;20024;-75
2022/02/25 14:17:20;;;;;;;7.13;0.90;;;;;;;;;;5103888;28;20028;-74
2022/02/25 14:20:05;;;;;;;7.07;0.88;;;;;;;;;;5103752;28;20031;-74
2022/02/25 14:22:35;;;;;;;5.45;1.45;;;;;;;;;;5102598;28;20104;-74
2022/02/25 14:25:13;;;;;;;6.25;1.15;;;;;;;;;;5103480;28;20048;-75
2022/02/25 14:27:53;;;;;;;4.55;1.17;;;;;;;;;;5103944;28;20371;-75
2022/02/25 14:30:19;;;;;;;6.93;0.80;;;;;;;;;;5103820;28;20332;-75
2022/02/25 14:32:50;;;;;;;1.90;0.60;;;;;;;;;;5103733;28;20035;-75
2022/02/25 14:35:21;;;;;;;8.00;0.90;;;;;;;;;;5103066;28;20477;-75
2022/02/25 14:37:47;;;;;;;4.15;1.00;;;;;;;;;;5103639;28;20024;-75
2022/02/25 14:40:12;;;;;;;7.53;1.23;;;;;;;;;;5103463;28;20032;-75
2022/02/25 14:42:38;;;;;;;4.85;0.63;;;;;;;;;;5101891;28;20027;-75
2022/02/25 14:45:04;;;;;;;4.95;1.00;;;;;;;;;;5103386;28;20035;-75
2022/02/25 14:47:30;;;;;;;5.35;0.88;;;;;;;;;;5103180;28;20028;-75
2022/02/25 14:49:55;;;;;;;5.55;0.82;;;;;;;;;;5103295;28;20024;-75
2022/02/25 14:52:21;;;;;;;3.40;1.10;;;;;;;;;;5103530;28;20016;-75
2022/02/25 14:54:46;;;;;;;12.00;2.17;;;;;;;;;;5103071;28;20024;-74
2022/02/25 14:57:12;;;;;;;5.68;0.95;;;;;;;;;;5102909;28;20027;-75